sensor_id;sensor_type;location;lat;lon;timestamp;temperature;humidity
27803;DHT22;15182;48.174;11.562;2023-08-08T00:00:25;17.40;91.80
27803;DHT22;15182;48.174;11.562;2023-08-08T00:02:53;17.40;91.80
27803;DHT22;15182;48.174;11.562;2023-08-08T00:05:21;17.40;91.80
27803;DHT22;15182;48.174;11.562;2023-08-08T00:07:49;17.40;91.80
27803;DHT22;15182;48.174;11.562;2023-08-08T00:10:17;17.40;92.10
27803;DHT22;15182;48.174;11.562;2023-08-08T00:12:46;17.40;91.70
27803;DHT22;15182;48.174;11.562;2023-08-08T00:15:13;17.40;91.70
27803;DHT22;15182;48.174;11.562;2023-08-08T00:17:41;17.40;91.70
27803;DHT22;15182;48.174;11.562;2023-08-08T00:20:10;17.40;91.70
27803;DHT22;15182;48.174;11.562;2023-08-08T00:22:38;17.40;91.70
27803;DHT22;15182;48.174;11.562;2023-08-08T00:25:06;17.40;91.70
27803;DHT22;15182;48.174;11.562;2023-08-08T00:27:34;17.40;91.70
27803;DHT22;15182;48.174;11.562;2023-08-08T00:30:10;17.40;91.70
27803;DHT22;15182;48.174;11.562;2023-08-08T00:32:39;17.40;91.70
27803;DHT22;15182;48.174;11.562;2023-08-08T00:35:08;17.50;91.70
27803;DHT22;15182;48.174;11.562;2023-08-08T00:37:36;17.40;91.70
27803;DHT22;15182;48.174;11.562;2023-08-08T00:40:05;17.50;91.70
27803;DHT22;15182;48.174;11.562;2023-08-08T00:42:33;17.50;91.70
27803;DHT22;15182;48.174;11.562;2023-08-08T00:45:03;17.50;91.70
27803;DHT22;15182;48.174;11.562;2023-08-08T00:47:33;17.50;91.70
27803;DHT22;15182;48.174;11.562;2023-08-08T00:50:02;17.50;91.70
27803;DHT22;15182;48.174;11.562;2023-08-08T00:52:33;17.50;91.70
27803;DHT22;15182;48.174;11.562;2023-08-08T00:55:01;17.50;92.00
27803;DHT22;15182;48.174;11.562;2023-08-08T00:57:30;17.60;91.70
27803;DHT22;15182;48.174;11.562;2023-08-08T00:59:57;17.60;91.60
27803;DHT22;15182;48.174;11.562;2023-08-08T01:02:25;17.50;91.50
27803;DHT22;15182;48.174;11.562;2023-08-08T01:04:55;17.50;91.50
27803;DHT22;15182;48.174;11.562;2023-08-08T01:07:30;17.50;91.60
27803;DHT22;15182;48.174;11.562;2023-08-08T01:10:05;17.50;91.50
27803;DHT22;15182;48.174;11.562;2023-08-08T01:12:38;17.50;91.50
27803;DHT22;15182;48.174;11.562;2023-08-08T01:15:10;17.50;91.60
27803;DHT22;15182;48.174;11.562;2023-08-08T01:17:40;17.50;91.60
27803;DHT22;15182;48.174;11.562;2023-08-08T01:20:11;17.40;91.60
27803;DHT22;15182;48.174;11.562;2023-08-08T01:22:45;17.40;91.70
27803;DHT22;15182;48.174;11.562;2023-08-08T01:25:20;17.40;91.60
27803;DHT22;15182;48.174;11.562;2023-08-08T01:27:49;17.40;91.70
27803;DHT22;15182;48.174;11.562;2023-08-08T01:30:17;17.40;91.70
27803;DHT22;15182;48.174;11.562;2023-08-08T01:32:45;17.40;91.70
27803;DHT22;15182;48.174;11.562;2023-08-08T01:35:12;17.30;91.70
27803;DHT22;15182;48.174;11.562;2023-08-08T01:37:44;17.30;91.70
27803;DHT22;15182;48.174;11.562;2023-08-08T01:40:17;17.30;91.70
27803;DHT22;15182;48.174;11.562;2023-08-08T01:42:48;17.30;91.70
27803;DHT22;15182;48.174;11.562;2023-08-08T01:45:16;17.30;91.70
27803;DHT22;15182;48.174;11.562;2023-08-08T01:47:49;17.30;91.70
27803;DHT22;15182;48.174;11.562;2023-08-08T01:50:17;17.30;91.80
27803;DHT22;15182;48.174;11.562;2023-08-08T01:52:47;17.30;91.70
27803;DHT22;15182;48.174;11.562;2023-08-08T01:55:15;17.30;91.80
27803;DHT22;15182;48.174;11.562;2023-08-08T01:57:44;17.30;91.80
27803;DHT22;15182;48.174;11.562;2023-08-08T02:00:13;17.30;91.80
27803;DHT22;15182;48.174;11.562;2023-08-08T02:02:43;17.30;91.90
27803;DHT22;15182;48.174;11.562;2023-08-08T02:05:12;17.30;91.90
27803;DHT22;15182;48.174;11.562;2023-08-08T02:07:38;17.30;91.70
27803;DHT22;15182;48.174;11.562;2023-08-08T02:10:07;17.30;91.70
27803;DHT22;15182;48.174;11.562;2023-08-08T02:12:35;17.30;91.70
27803;DHT22;15182;48.174;11.562;2023-08-08T02:15:06;17.30;91.70
27803;DHT22;15182;48.174;11.562;2023-08-08T02:17:35;17.30;91.70
27803;DHT22;15182;48.174;11.562;2023-08-08T02:20:05;17.30;91.70
27803;DHT22;15182;48.174;11.562;2023-08-08T02:22:34;17.30;91.70
27803;DHT22;15182;48.174;11.562;2023-08-08T02:25:03;17.30;91.70
27803;DHT22;15182;48.174;11.562;2023-08-08T02:27:31;17.30;91.70
27803;DHT22;15182;48.174;11.562;2023-08-08T02:29:59;17.30;91.70
27803;DHT22;15182;48.174;11.562;2023-08-08T02:32:28;17.20;91.70
27803;DHT22;15182;48.174;11.562;2023-08-08T02:34:56;17.20;91.70
27803;DHT22;15182;48.174;11.562;2023-08-08T02:37:24;17.20;91.70
27803;DHT22;15182;48.174;11.562;2023-08-08T02:39:52;17.20;91.60
27803;DHT22;15182;48.174;11.562;2023-08-08T02:42:20;17.20;91.60
27803;DHT22;15182;48.174;11.562;2023-08-08T02:44:48;17.20;91.60
27803;DHT22;15182;48.174;11.562;2023-08-08T02:47:16;17.20;91.90
27803;DHT22;15182;48.174;11.562;2023-08-08T02:49:46;17.20;91.60
27803;DHT22;15182;48.174;11.562;2023-08-08T02:52:14;17.20;91.60
27803;DHT22;15182;48.174;11.562;2023-08-08T02:54:42;17.10;91.60
27803;DHT22;15182;48.174;11.562;2023-08-08T02:57:10;17.10;91.50
27803;DHT22;15182;48.174;11.562;2023-08-08T02:59:39;17.10;91.50
27803;DHT22;15182;48.174;11.562;2023-08-08T03:02:07;17.10;91.50
27803;DHT22;15182;48.174;11.562;2023-08-08T03:04:37;17.10;91.50
27803;DHT22;15182;48.174;11.562;2023-08-08T03:07:08;17.10;91.50
27803;DHT22;15182;48.174;11.562;2023-08-08T03:09:37;17.00;91.40
27803;DHT22;15182;48.174;11.562;2023-08-08T03:12:06;17.00;91.40
27803;DHT22;15182;48.174;11.562;2023-08-08T03:14:35;17.00;91.40
27803;DHT22;15182;48.174;11.562;2023-08-08T03:17:04;17.00;91.40
27803;DHT22;15182;48.174;11.562;2023-08-08T03:19:33;16.90;91.40
27803;DHT22;15182;48.174;11.562;2023-08-08T03:22:02;16.90;91.50
27803;DHT22;15182;48.174;11.562;2023-08-08T03:24:34;16.90;91.50
27803;DHT22;15182;48.174;11.562;2023-08-08T03:27:02;16.90;91.60
27803;DHT22;15182;48.174;11.562;2023-08-08T03:29:30;16.90;91.50
27803;DHT22;15182;48.174;11.562;2023-08-08T03:31:59;16.90;91.50
27803;DHT22;15182;48.174;11.562;2023-08-08T03:34:31;16.90;92.00
27803;DHT22;15182;48.174;11.562;2023-08-08T03:36:59;16.90;91.60
27803;DHT22;15182;48.174;11.562;2023-08-08T03:39:27;16.90;91.50
27803;DHT22;15182;48.174;11.562;2023-08-08T03:41:56;16.90;91.60
27803;DHT22;15182;48.174;11.562;2023-08-08T03:44:24;16.90;91.50
27803;DHT22;15182;48.174;11.562;2023-08-08T03:46:52;16.90;91.50
27803;DHT22;15182;48.174;11.562;2023-08-08T03:49:20;16.90;91.50
27803;DHT22;15182;48.174;11.562;2023-08-08T03:51:48;16.90;91.50
27803;DHT22;15182;48.174;11.562;2023-08-08T03:54:17;16.90;91.50
27803;DHT22;15182;48.174;11.562;2023-08-08T03:56:45;16.90;91.60
27803;DHT22;15182;48.174;11.562;2023-08-08T03:59:14;16.90;91.60
27803;DHT22;15182;48.174;11.562;2023-08-08T04:01:42;16.90;91.90
27803;DHT22;15182;48.174;11.562;2023-08-08T04:04:10;16.90;91.60
27803;DHT22;15182;48.174;11.562;2023-08-08T04:06:38;16.90;91.60
27803;DHT22;15182;48.174;11.562;2023-08-08T04:09:05;16.90;91.70
27803;DHT22;15182;48.174;11.562;2023-08-08T04:11:33;16.90;91.70
27803;DHT22;15182;48.174;11.562;2023-08-08T04:14:02;16.90;91.80
27803;DHT22;15182;48.174;11.562;2023-08-08T04:16:31;16.90;91.70
27803;DHT22;15182;48.174;11.562;2023-08-08T04:18:59;16.90;91.80
27803;DHT22;15182;48.174;11.562;2023-08-08T04:21:29;16.90;91.70
27803;DHT22;15182;48.174;11.562;2023-08-08T04:23:58;16.90;91.70
27803;DHT22;15182;48.174;11.562;2023-08-08T04:26:26;16.90;92.10
27803;DHT22;15182;48.174;11.562;2023-08-08T04:28:54;17.00;92.20
27803;DHT22;15182;48.174;11.562;2023-08-08T04:31:22;17.00;92.20
27803;DHT22;15182;48.174;11.562;2023-08-08T04:33:53;17.00;91.80
27803;DHT22;15182;48.174;11.562;2023-08-08T04:36:24;17.00;91.80
27803;DHT22;15182;48.174;11.562;2023-08-08T04:38:52;17.00;91.80
27803;DHT22;15182;48.174;11.562;2023-08-08T04:41:20;17.00;91.80
27803;DHT22;15182;48.174;11.562;2023-08-08T04:43:48;17.10;91.90
27803;DHT22;15182;48.174;11.562;2023-08-08T04:46:15;17.10;92.00
27803;DHT22;15182;48.174;11.562;2023-08-08T04:48:43;17.10;91.90
27803;DHT22;15182;48.174;11.562;2023-08-08T04:51:12;17.10;92.00
27803;DHT22;15182;48.174;11.562;2023-08-08T04:53:40;17.10;92.10
27803;DHT22;15182;48.174;11.562;2023-08-08T04:56:08;17.20;92.10
27803;DHT22;15182;48.174;11.562;2023-08-08T04:58:36;17.20;92.00
27803;DHT22;15182;48.174;11.562;2023-08-08T05:01:03;17.20;92.10
27803;DHT22;15182;48.174;11.562;2023-08-08T05:03:31;17.20;92.10
27803;DHT22;15182;48.174;11.562;2023-08-08T05:05:59;17.30;92.10
27803;DHT22;15182;48.174;11.562;2023-08-08T05:08:28;17.30;92.20
27803;DHT22;15182;48.174;11.562;2023-08-08T05:10:56;17.30;92.20
27803;DHT22;15182;48.174;11.562;2023-08-08T05:13:24;17.30;92.20
27803;DHT22;15182;48.174;11.562;2023-08-08T05:15:51;17.40;92.20
27803;DHT22;15182;48.174;11.562;2023-08-08T05:18:19;17.40;92.10
27803;DHT22;15182;48.174;11.562;2023-08-08T05:20:47;17.40;92.20
27803;DHT22;15182;48.174;11.562;2023-08-08T05:23:15;17.40;92.20
27803;DHT22;15182;48.174;11.562;2023-08-08T05:25:45;17.40;92.20
27803;DHT22;15182;48.174;11.562;2023-08-08T05:28:12;17.40;92.20
27803;DHT22;15182;48.174;11.562;2023-08-08T05:30:40;17.50;92.20
27803;DHT22;15182;48.174;11.562;2023-08-08T05:33:08;17.50;92.20
27803;DHT22;15182;48.174;11.562;2023-08-08T05:35:36;17.50;92.10
27803;DHT22;15182;48.174;11.562;2023-08-08T05:38:04;17.60;92.10
27803;DHT22;15182;48.174;11.562;2023-08-08T05:40:34;17.60;92.10
27803;DHT22;15182;48.174;11.562;2023-08-08T05:43:04;17.60;92.10
27803;DHT22;15182;48.174;11.562;2023-08-08T05:45:31;17.70;92.20
27803;DHT22;15182;48.174;11.562;2023-08-08T05:47:59;17.70;92.10
27803;DHT22;15182;48.174;11.562;2023-08-08T05:50:27;17.70;92.40
27803;DHT22;15182;48.174;11.562;2023-08-08T05:52:55;17.80;92.10
27803;DHT22;15182;48.174;11.562;2023-08-08T05:55:23;17.80;92.20
27803;DHT22;15182;48.174;11.562;2023-08-08T05:57:51;17.80;92.20
27803;DHT22;15182;48.174;11.562;2023-08-08T06:00:20;17.80;92.20
27803;DHT22;15182;48.174;11.562;2023-08-08T06:02:48;17.90;92.20
27803;DHT22;15182;48.174;11.562;2023-08-08T06:05:16;17.90;92.10
27803;DHT22;15182;48.174;11.562;2023-08-08T06:07:45;17.90;92.40
27803;DHT22;15182;48.174;11.562;2023-08-08T06:10:12;17.90;92.10
27803;DHT22;15182;48.174;11.562;2023-08-08T06:12:40;17.90;92.10
27803;DHT22;15182;48.174;11.562;2023-08-08T06:15:09;17.90;92.10
27803;DHT22;15182;48.174;11.562;2023-08-08T06:17:38;18.00;92.20
27803;DHT22;15182;48.174;11.562;2023-08-08T06:20:07;18.00;92.20
27803;DHT22;15182;48.174;11.562;2023-08-08T06:22:36;18.00;92.20
27803;DHT22;15182;48.174;11.562;2023-08-08T06:25:05;18.00;92.20
27803;DHT22;15182;48.174;11.562;2023-08-08T06:27:34;18.10;92.20
27803;DHT22;15182;48.174;11.562;2023-08-08T06:30:01;18.10;92.10
27803;DHT22;15182;48.174;11.562;2023-08-08T06:32:30;18.10;92.20
27803;DHT22;15182;48.174;11.562;2023-08-08T06:34:59;18.20;92.20
27803;DHT22;15182;48.174;11.562;2023-08-08T06:37:27;18.20;92.10
27803;DHT22;15182;48.174;11.562;2023-08-08T06:39:55;18.20;92.10
27803;DHT22;15182;48.174;11.562;2023-08-08T06:42:22;18.30;92.10
27803;DHT22;15182;48.174;11.562;2023-08-08T06:44:56;18.30;92.10
27803;DHT22;15182;48.174;11.562;2023-08-08T06:47:23;18.30;92.10
27803;DHT22;15182;48.174;11.562;2023-08-08T06:49:51;18.40;92.20
27803;DHT22;15182;48.174;11.562;2023-08-08T06:52:21;18.40;92.20
27803;DHT22;15182;48.174;11.562;2023-08-08T06:54:49;18.50;92.20
27803;DHT22;15182;48.174;11.562;2023-08-08T06:57:16;18.60;92.30
27803;DHT22;15182;48.174;11.562;2023-08-08T06:59:44;18.60;92.20
27803;DHT22;15182;48.174;11.562;2023-08-08T07:02:16;18.70;92.20
27803;DHT22;15182;48.174;11.562;2023-08-08T07:04:44;18.80;92.10
27803;DHT22;15182;48.174;11.562;2023-08-08T07:07:12;18.90;92.10
27803;DHT22;15182;48.174;11.562;2023-08-08T07:09:41;19.00;92.30
27803;DHT22;15182;48.174;11.562;2023-08-08T07:12:09;19.10;92.00
27803;DHT22;15182;48.174;11.562;2023-08-08T07:14:37;19.20;92.40
27803;DHT22;15182;48.174;11.562;2023-08-08T07:17:05;19.30;92.00
27803;DHT22;15182;48.174;11.562;2023-08-08T07:19:33;19.40;91.90
27803;DHT22;15182;48.174;11.562;2023-08-08T07:22:01;19.50;91.80
27803;DHT22;15182;48.174;11.562;2023-08-08T07:24:28;19.60;91.70
27803;DHT22;15182;48.174;11.562;2023-08-08T07:26:58;19.70;91.50
27803;DHT22;15182;48.174;11.562;2023-08-08T07:29:26;19.70;91.40
27803;DHT22;15182;48.174;11.562;2023-08-08T07:31:54;19.80;91.40
27803;DHT22;15182;48.174;11.562;2023-08-08T07:34:22;20.00;91.40
27803;DHT22;15182;48.174;11.562;2023-08-08T07:36:51;20.10;91.30
27803;DHT22;15182;48.174;11.562;2023-08-08T07:39:19;20.10;91.00
27803;DHT22;15182;48.174;11.562;2023-08-08T07:41:46;20.20;90.80
27803;DHT22;15182;48.174;11.562;2023-08-08T07:44:16;20.30;90.60
27803;DHT22;15182;48.174;11.562;2023-08-08T07:46:43;20.40;90.30
27803;DHT22;15182;48.174;11.562;2023-08-08T07:49:11;20.50;90.30
27803;DHT22;15182;48.174;11.562;2023-08-08T07:51:39;20.50;90.20
27803;DHT22;15182;48.174;11.562;2023-08-08T07:54:07;20.60;90.50
27803;DHT22;15182;48.174;11.562;2023-08-08T07:56:37;20.70;90.10
27803;DHT22;15182;48.174;11.562;2023-08-08T07:59:04;20.80;89.80
27803;DHT22;15182;48.174;11.562;2023-08-08T08:01:34;20.90;89.60
27803;DHT22;15182;48.174;11.562;2023-08-08T08:04:01;20.90;89.30
27803;DHT22;15182;48.174;11.562;2023-08-08T08:06:30;21.00;89.50
27803;DHT22;15182;48.174;11.562;2023-08-08T08:08:58;21.10;89.70
27803;DHT22;15182;48.174;11.562;2023-08-08T08:11:26;21.20;89.40
27803;DHT22;15182;48.174;11.562;2023-08-08T08:13:53;21.30;89.00
27803;DHT22;15182;48.174;11.562;2023-08-08T08:16:21;21.30;88.80
27803;DHT22;15182;48.174;11.562;2023-08-08T08:18:50;21.40;88.50
27803;DHT22;15182;48.174;11.562;2023-08-08T08:21:18;21.50;88.20
27803;DHT22;15182;48.174;11.562;2023-08-08T08:23:47;21.50;87.90
27803;DHT22;15182;48.174;11.562;2023-08-08T08:26:15;21.60;88.00
27803;DHT22;15182;48.174;11.562;2023-08-08T08:28:43;21.70;88.10
27803;DHT22;15182;48.174;11.562;2023-08-08T08:31:10;21.70;87.50
27803;DHT22;15182;48.174;11.562;2023-08-08T08:33:38;21.80;87.60
27803;DHT22;15182;48.174;11.562;2023-08-08T08:36:07;21.90;87.60
27803;DHT22;15182;48.174;11.562;2023-08-08T08:38:35;21.90;86.80
27803;DHT22;15182;48.174;11.562;2023-08-08T08:41:03;22.00;86.30
27803;DHT22;15182;48.174;11.562;2023-08-08T08:43:31;22.00;85.70
27803;DHT22;15182;48.174;11.562;2023-08-08T08:46:00;22.10;85.30
27803;DHT22;15182;48.174;11.562;2023-08-08T08:48:29;22.10;84.90
27803;DHT22;15182;48.174;11.562;2023-08-08T08:50:58;22.10;84.60
27803;DHT22;15182;48.174;11.562;2023-08-08T08:53:28;22.10;84.20
27803;DHT22;15182;48.174;11.562;2023-08-08T08:55:56;22.20;83.70
27803;DHT22;15182;48.174;11.562;2023-08-08T08:58:25;22.20;84.10
27803;DHT22;15182;48.174;11.562;2023-08-08T09:00:54;22.20;84.00
27803;DHT22;15182;48.174;11.562;2023-08-08T09:03:23;22.20;83.70
27803;DHT22;15182;48.174;11.562;2023-08-08T09:05:51;22.30;83.60
27803;DHT22;15182;48.174;11.562;2023-08-08T09:08:20;22.30;83.60
27803;DHT22;15182;48.174;11.562;2023-08-08T09:10:49;22.30;83.30
27803;DHT22;15182;48.174;11.562;2023-08-08T09:13:18;22.40;82.70
27803;DHT22;15182;48.174;11.562;2023-08-08T09:15:49;22.40;82.60
27803;DHT22;15182;48.174;11.562;2023-08-08T09:18:16;22.50;82.20
27803;DHT22;15182;48.174;11.562;2023-08-08T09:20:47;22.50;82.20
27803;DHT22;15182;48.174;11.562;2023-08-08T09:23:15;22.60;81.60
27803;DHT22;15182;48.174;11.562;2023-08-08T09:25:43;22.60;82.20
27803;DHT22;15182;48.174;11.562;2023-08-08T09:28:12;22.70;81.70
27803;DHT22;15182;48.174;11.562;2023-08-08T09:30:41;22.80;80.90
27803;DHT22;15182;48.174;11.562;2023-08-08T09:33:11;22.80;81.00
27803;DHT22;15182;48.174;11.562;2023-08-08T09:35:39;22.90;81.30
27803;DHT22;15182;48.174;11.562;2023-08-08T09:38:07;22.90;81.00
27803;DHT22;15182;48.174;11.562;2023-08-08T09:40:35;23.00;80.90
27803;DHT22;15182;48.174;11.562;2023-08-08T09:43:03;23.10;80.90
27803;DHT22;15182;48.174;11.562;2023-08-08T09:45:37;23.10;80.70
27803;DHT22;15182;48.174;11.562;2023-08-08T09:48:06;23.20;80.60
27803;DHT22;15182;48.174;11.562;2023-08-08T09:50:34;23.30;81.20
27803;DHT22;15182;48.174;11.562;2023-08-08T09:53:03;23.30;82.00
27803;DHT22;15182;48.174;11.562;2023-08-08T09:55:32;23.40;80.40
27803;DHT22;15182;48.174;11.562;2023-08-08T09:58:00;23.50;79.60
27803;DHT22;15182;48.174;11.562;2023-08-08T10:00:30;23.50;79.20
27803;DHT22;15182;48.174;11.562;2023-08-08T10:03:01;23.50;79.40
27803;DHT22;15182;48.174;11.562;2023-08-08T10:05:30;23.50;78.10
27803;DHT22;15182;48.174;11.562;2023-08-08T10:07:58;23.50;78.30
27803;DHT22;15182;48.174;11.562;2023-08-08T10:10:26;23.50;78.20
27803;DHT22;15182;48.174;11.562;2023-08-08T10:12:54;23.50;78.90
27803;DHT22;15182;48.174;11.562;2023-08-08T10:15:25;23.50;78.30
27803;DHT22;15182;48.174;11.562;2023-08-08T10:17:55;23.60;78.20
27803;DHT22;15182;48.174;11.562;2023-08-08T10:20:25;23.60;77.60
27803;DHT22;15182;48.174;11.562;2023-08-08T10:22:54;23.70;77.80
27803;DHT22;15182;48.174;11.562;2023-08-08T10:25:26;23.80;77.80
27803;DHT22;15182;48.174;11.562;2023-08-08T10:28:07;23.90;76.70
27803;DHT22;15182;48.174;11.562;2023-08-08T10:30:44;24.00;75.90
27803;DHT22;15182;48.174;11.562;2023-08-08T10:33:17;24.10;75.80
27803;DHT22;15182;48.174;11.562;2023-08-08T10:35:54;24.20;76.50
27803;DHT22;15182;48.174;11.562;2023-08-08T10:38:25;24.30;74.90
27803;DHT22;15182;48.174;11.562;2023-08-08T10:40:57;24.40;76.10
27803;DHT22;15182;48.174;11.562;2023-08-08T10:43:26;24.40;74.50
27803;DHT22;15182;48.174;11.562;2023-08-08T10:45:58;24.60;75.20
27803;DHT22;15182;48.174;11.562;2023-08-08T10:48:27;24.60;74.80
27803;DHT22;15182;48.174;11.562;2023-08-08T10:50:58;24.60;74.20
27803;DHT22;15182;48.174;11.562;2023-08-08T10:53:26;24.60;73.80
27803;DHT22;15182;48.174;11.562;2023-08-08T10:55:58;24.60;74.20
27803;DHT22;15182;48.174;11.562;2023-08-08T10:58:37;24.70;72.60
27803;DHT22;15182;48.174;11.562;2023-08-08T11:01:06;24.70;73.30
27803;DHT22;15182;48.174;11.562;2023-08-08T11:03:36;24.70;73.60
27803;DHT22;15182;48.174;11.562;2023-08-08T11:06:08;24.70;72.00
27803;DHT22;15182;48.174;11.562;2023-08-08T11:08:37;24.80;71.50
27803;DHT22;15182;48.174;11.562;2023-08-08T11:11:05;24.70;72.10
27803;DHT22;15182;48.174;11.562;2023-08-08T11:13:33;24.60;72.00
27803;DHT22;15182;48.174;11.562;2023-08-08T11:16:01;24.50;71.40
27803;DHT22;15182;48.174;11.562;2023-08-08T11:18:29;24.50;71.30
27803;DHT22;15182;48.174;11.562;2023-08-08T11:20:57;24.50;71.70
27803;DHT22;15182;48.174;11.562;2023-08-08T11:23:26;24.40;71.60
27803;DHT22;15182;48.174;11.562;2023-08-08T11:25:54;24.40;71.30
27803;DHT22;15182;48.174;11.562;2023-08-08T11:28:22;24.50;71.40
27803;DHT22;15182;48.174;11.562;2023-08-08T11:30:50;24.50;71.80
27803;DHT22;15182;48.174;11.562;2023-08-08T11:33:18;24.50;71.30
27803;DHT22;15182;48.174;11.562;2023-08-08T11:35:46;24.50;71.70
27803;DHT22;15182;48.174;11.562;2023-08-08T11:38:15;24.50;71.00
27803;DHT22;15182;48.174;11.562;2023-08-08T11:40:45;24.60;71.80
27803;DHT22;15182;48.174;11.562;2023-08-08T11:43:13;24.60;70.60
27803;DHT22;15182;48.174;11.562;2023-08-08T11:45:42;24.80;70.90
27803;DHT22;15182;48.174;11.562;2023-08-08T11:48:10;24.90;70.40
27803;DHT22;15182;48.174;11.562;2023-08-08T11:50:38;25.00;69.30
27803;DHT22;15182;48.174;11.562;2023-08-08T11:53:08;25.00;68.90
27803;DHT22;15182;48.174;11.562;2023-08-08T11:55:36;25.10;69.60
27803;DHT22;15182;48.174;11.562;2023-08-08T11:58:05;25.20;69.20
27803;DHT22;15182;48.174;11.562;2023-08-08T12:00:33;25.30;67.90
27803;DHT22;15182;48.174;11.562;2023-08-08T12:03:03;25.30;69.40
27803;DHT22;15182;48.174;11.562;2023-08-08T12:05:36;25.40;68.10
27803;DHT22;15182;48.174;11.562;2023-08-08T12:08:05;25.50;67.40
27803;DHT22;15182;48.174;11.562;2023-08-08T12:10:33;25.60;67.50
27803;DHT22;15182;48.174;11.562;2023-08-08T12:13:01;25.70;67.90
27803;DHT22;15182;48.174;11.562;2023-08-08T12:15:32;25.70;67.00
27803;DHT22;15182;48.174;11.562;2023-08-08T12:18:02;25.80;66.10
27803;DHT22;15182;48.174;11.562;2023-08-08T12:20:31;25.80;66.10
27803;DHT22;15182;48.174;11.562;2023-08-08T12:22:59;25.80;66.20
27803;DHT22;15182;48.174;11.562;2023-08-08T12:25:27;25.80;65.80
27803;DHT22;15182;48.174;11.562;2023-08-08T12:27:55;25.70;66.30
27803;DHT22;15182;48.174;11.562;2023-08-08T12:30:23;25.70;66.00
27803;DHT22;15182;48.174;11.562;2023-08-08T12:32:52;25.70;65.70
27803;DHT22;15182;48.174;11.562;2023-08-08T12:35:20;25.70;65.40
27803;DHT22;15182;48.174;11.562;2023-08-08T12:37:48;25.80;65.50
27803;DHT22;15182;48.174;11.562;2023-08-08T12:40:16;25.80;65.10
27803;DHT22;15182;48.174;11.562;2023-08-08T12:42:44;25.90;64.70
27803;DHT22;15182;48.174;11.562;2023-08-08T12:45:11;26.00;65.40
27803;DHT22;15182;48.174;11.562;2023-08-08T12:47:40;26.10;64.70
27803;DHT22;15182;48.174;11.562;2023-08-08T12:50:09;26.10;65.70
27803;DHT22;15182;48.174;11.562;2023-08-08T12:52:37;26.20;64.50
27803;DHT22;15182;48.174;11.562;2023-08-08T12:55:07;26.30;64.10
27803;DHT22;15182;48.174;11.562;2023-08-08T12:57:37;26.40;64.10
27803;DHT22;15182;48.174;11.562;2023-08-08T13:00:07;26.50;64.10
27803;DHT22;15182;48.174;11.562;2023-08-08T13:02:37;26.60;63.90
27803;DHT22;15182;48.174;11.562;2023-08-08T13:05:05;26.70;64.00
27803;DHT22;15182;48.174;11.562;2023-08-08T13:07:35;26.80;64.10
27803;DHT22;15182;48.174;11.562;2023-08-08T13:10:04;26.90;63.70
27803;DHT22;15182;48.174;11.562;2023-08-08T13:12:32;27.00;63.20
27803;DHT22;15182;48.174;11.562;2023-08-08T13:15:00;27.10;63.00
27803;DHT22;15182;48.174;11.562;2023-08-08T13:17:28;27.00;62.50
27803;DHT22;15182;48.174;11.562;2023-08-08T13:19:57;27.00;62.50
27803;DHT22;15182;48.174;11.562;2023-08-08T13:22:25;26.90;62.20
27803;DHT22;15182;48.174;11.562;2023-08-08T13:24:54;26.90;63.20
27803;DHT22;15182;48.174;11.562;2023-08-08T13:27:21;26.90;62.40
27803;DHT22;15182;48.174;11.562;2023-08-08T13:29:49;26.90;62.40
27803;DHT22;15182;48.174;11.562;2023-08-08T13:32:17;26.90;62.10
27803;DHT22;15182;48.174;11.562;2023-08-08T13:34:45;26.90;62.00
27803;DHT22;15182;48.174;11.562;2023-08-08T13:37:12;26.90;61.90
27803;DHT22;15182;48.174;11.562;2023-08-08T13:39:40;26.90;61.80
27803;DHT22;15182;48.174;11.562;2023-08-08T13:42:09;26.90;61.70
27803;DHT22;15182;48.174;11.562;2023-08-08T13:44:37;26.90;61.50
27803;DHT22;15182;48.174;11.562;2023-08-08T13:47:05;26.90;61.70
27803;DHT22;15182;48.174;11.562;2023-08-08T13:49:33;26.90;61.60
27803;DHT22;15182;48.174;11.562;2023-08-08T13:52:02;27.00;62.50
27803;DHT22;15182;48.174;11.562;2023-08-08T13:54:30;27.00;62.80
27803;DHT22;15182;48.174;11.562;2023-08-08T13:56:58;27.10;62.10
27803;DHT22;15182;48.174;11.562;2023-08-08T13:59:27;27.10;60.50
27803;DHT22;15182;48.174;11.562;2023-08-08T14:01:54;27.10;60.20
27803;DHT22;15182;48.174;11.562;2023-08-08T14:04:22;27.10;60.50
27803;DHT22;15182;48.174;11.562;2023-08-08T14:06:50;27.10;60.80
27803;DHT22;15182;48.174;11.562;2023-08-08T14:09:18;27.10;60.70
27803;DHT22;15182;48.174;11.562;2023-08-08T14:11:46;27.10;60.70
27803;DHT22;15182;48.174;11.562;2023-08-08T14:14:13;27.00;60.50
27803;DHT22;15182;48.174;11.562;2023-08-08T14:16:42;27.00;61.10
27803;DHT22;15182;48.174;11.562;2023-08-08T14:19:10;27.00;60.80
27803;DHT22;15182;48.174;11.562;2023-08-08T14:21:39;27.00;60.60
27803;DHT22;15182;48.174;11.562;2023-08-08T14:24:07;26.90;60.40
27803;DHT22;15182;48.174;11.562;2023-08-08T14:26:35;26.80;60.70
27803;DHT22;15182;48.174;11.562;2023-08-08T14:29:03;26.80;61.00
27803;DHT22;15182;48.174;11.562;2023-08-08T14:31:31;26.60;60.50
27803;DHT22;15182;48.174;11.562;2023-08-08T14:34:00;26.60;60.90
27803;DHT22;15182;48.174;11.562;2023-08-08T14:36:28;26.50;60.70
27803;DHT22;15182;48.174;11.562;2023-08-08T14:38:56;26.50;60.90
27803;DHT22;15182;48.174;11.562;2023-08-08T14:41:24;26.40;60.90
27803;DHT22;15182;48.174;11.562;2023-08-08T14:43:51;26.30;61.20
27803;DHT22;15182;48.174;11.562;2023-08-08T14:46:19;26.30;61.50
27803;DHT22;15182;48.174;11.562;2023-08-08T14:48:47;26.30;61.70
27803;DHT22;15182;48.174;11.562;2023-08-08T14:51:16;26.20;61.80
27803;DHT22;15182;48.174;11.562;2023-08-08T14:53:45;26.30;62.00
27803;DHT22;15182;48.174;11.562;2023-08-08T14:56:13;26.20;63.40
27803;DHT22;15182;48.174;11.562;2023-08-08T14:58:41;26.20;62.20
27803;DHT22;15182;48.174;11.562;2023-08-08T15:01:09;26.20;62.00
27803;DHT22;15182;48.174;11.562;2023-08-08T15:03:36;26.30;63.10
27803;DHT22;15182;48.174;11.562;2023-08-08T15:06:05;26.30;62.30
27803;DHT22;15182;48.174;11.562;2023-08-08T15:08:34;26.20;61.90
27803;DHT22;15182;48.174;11.562;2023-08-08T15:11:02;26.20;61.70
27803;DHT22;15182;48.174;11.562;2023-08-08T15:13:30;26.10;62.00
27803;DHT22;15182;48.174;11.562;2023-08-08T15:15:58;26.10;62.00
27803;DHT22;15182;48.174;11.562;2023-08-08T15:18:26;26.10;62.20
27803;DHT22;15182;48.174;11.562;2023-08-08T15:20:53;26.10;62.40
27803;DHT22;15182;48.174;11.562;2023-08-08T15:23:21;26.00;62.20